Time;durP1;ratioP1;P1;durP2;ratioP2;P2;SDS_P1;SDS_P2;PMS_P1;PMS_P2;Temp;Humidity;BMP_temperature;BMP_pressure;BME280_temperature;BME280_humidity;BME280_pressure;Samples;Min_cycle;Max_cycle;Signal;HPM_P1;HPM_P2
2023/07/18 00:02:10;;;;;;;3.20;2.40;;;;;;;;;;5090587;28;20209;-84
2023/07/18 00:04:38;;;;;;;5.85;2.80;;;;;;;;;;5093802;28;20674;-85
2023/07/18 00:07:05;;;;;;;2.90;2.30;;;;;;;;;;5095101;28;20232;-85
2023/07/18 00:09:33;;;;;;;3.95;2.42;;;;;;;;;;5091096;28;20698;-85
2023/07/18 00:12:00;;;;;;;3.63;2.65;;;;;;;;;;5090941;28;20232;-85
2023/07/18 00:14:29;;;;;;;2.58;2.28;;;;;;;;;;5090491;28;20224;-85
2023/07/18 00:16:57;;;;;;;2.78;2.20;;;;;;;;;;5086455;28;20224;-84
2023/07/18 00:19:24;;;;;;;3.33;2.50;;;;;;;;;;5093044;28;20713;-84
2023/07/18 00:21:51;;;;;;;3.63;2.55;;;;;;;;;;5095084;28;20208;-86
2023/07/18 00:24:18;;;;;;;3.13;2.60;;;;;;;;;;5094965;28;20243;-84
2023/07/18 00:26:45;;;;;;;3.35;2.40;;;;;;;;;;5095227;28;20232;-85
2023/07/18 00:29:12;;;;;;;3.25;2.58;;;;;;;;;;5094386;28;20228;-85
2023/07/18 00:31:41;;;;;;;3.20;2.33;;;;;;;;;;5095040;28;20744;-85
2023/07/18 00:34:08;;;;;;;4.38;2.65;;;;;;;;;;5094837;28;20259;-85
2023/07/18 00:36:35;;;;;;;6.38;2.42;;;;;;;;;;5086844;28;20227;-85
2023/07/18 00:39:03;;;;;;;4.15;2.67;;;;;;;;;;5102340;28;20706;-85
2023/07/18 00:41:30;;;;;;;2.88;2.10;;;;;;;;;;5096768;28;20756;-85
2023/07/18 00:43:57;;;;;;;4.30;2.77;;;;;;;;;;5105347;28;20223;-85
2023/07/18 00:46:24;;;;;;;5.13;2.50;;;;;;;;;;5101640;28;20209;-85
2023/07/18 00:48:53;;;;;;;2.40;2.20;;;;;;;;;;5094415;28;20236;-85
2023/07/18 00:51:20;;;;;;;4.63;2.50;;;;;;;;;;5094630;28;20215;-85
2023/07/18 00:53:47;;;;;;;3.60;2.30;;;;;;;;;;5094043;28;20228;-85
2023/07/18 00:56:14;;;;;;;3.57;2.50;;;;;;;;;;5094601;28;20212;-84
2023/07/18 00:58:41;;;;;;;3.97;2.43;;;;;;;;;;5092364;28;20232;-85
2023/07/18 01:01:08;;;;;;;3.40;2.67;;;;;;;;;;5094299;28;20212;-85
2023/07/18 01:03:37;;;;;;;5.43;2.67;;;;;;;;;;5086007;28;20239;-84
2023/07/18 01:06:05;;;;;;;4.67;2.50;;;;;;;;;;5091965;28;20212;-84
2023/07/18 01:08:32;;;;;;;5.23;2.63;;;;;;;;;;5093368;28;20229;-84
2023/07/18 01:10:59;;;;;;;3.47;2.60;;;;;;;;;;5094364;28;20209;-85
2023/07/18 01:13:26;;;;;;;6.20;2.80;;;;;;;;;;5093683;28;20232;-85
2023/07/18 01:15:53;;;;;;;4.83;2.20;;;;;;;;;;5094282;28;20209;-85
2023/07/18 01:18:20;;;;;;;4.23;2.50;;;;;;;;;;5093512;28;20309;-85
2023/07/18 01:20:48;;;;;;;6.77;2.60;;;;;;;;;;5094200;28;20204;-84
2023/07/18 01:23:17;;;;;;;4.00;2.63;;;;;;;;;;5093848;28;20236;-85
2023/07/18 01:25:44;;;;;;;3.10;2.80;;;;;;;;;;5094224;28;20207;-85
2023/07/18 01:28:11;;;;;;;4.63;2.70;;;;;;;;;;5093568;28;20239;-84
2023/07/18 01:30:38;;;;;;;3.27;2.07;;;;;;;;;;5093523;28;20663;-85
2023/07/18 01:33:06;;;;;;;3.97;2.20;;;;;;;;;;5092755;28;20228;-85
2023/07/18 01:35:34;;;;;;;3.77;2.40;;;;;;;;;;5093769;28;20228;-84
2023/07/18 01:38:01;;;;;;;2.80;2.23;;;;;;;;;;5093570;28;20228;-85
2023/07/18 01:40:29;;;;;;;4.57;2.93;;;;;;;;;;5093798;28;20205;-85
2023/07/18 01:42:57;;;;;;;2.80;2.40;;;;;;;;;;5093612;28;20232;-84
2023/07/18 01:45:25;;;;;;;4.97;2.97;;;;;;;;;;5093798;28;20231;-85
2023/07/18 01:47:52;;;;;;;3.13;2.53;;;;;;;;;;5093474;28;20235;-84
2023/07/18 01:50:19;;;;;;;3.90;2.60;;;;;;;;;;5093844;28;20227;-85
2023/07/18 01:52:47;;;;;;;3.23;2.93;;;;;;;;;;5093417;28;20254;-85
2023/07/18 01:55:14;;;;;;;2.97;2.50;;;;;;;;;;5093468;28;20204;-85
2023/07/18 01:57:47;;;;;;;5.00;2.40;;;;;;;;;;5092942;28;20239;-84
2023/07/18 02:00:18;;;;;;;5.37;2.47;;;;;;;;;;5099362;28;20191;-85
2023/07/18 02:02:47;;;;;;;3.13;2.73;;;;;;;;;;5093056;28;20228;-85
2023/07/18 02:05:15;;;;;;;8.13;2.77;;;;;;;;;;5093717;28;20291;-85
2023/07/18 02:07:42;;;;;;;3.10;2.83;;;;;;;;;;5092794;28;20236;-84
2023/07/18 02:10:09;;;;;;;4.07;3.00;;;;;;;;;;5093052;28;20223;-85
2023/07/18 02:12:36;;;;;;;4.30;2.80;;;;;;;;;;5092510;28;20255;-85
2023/07/18 02:15:05;;;;;;;2.90;2.67;;;;;;;;;;5096550;28;21704;-85
2023/07/18 02:17:32;;;;;;;4.33;2.70;;;;;;;;;;5092475;28;20241;-84
2023/07/18 02:19:59;;;;;;;2.70;2.50;;;;;;;;;;5092937;28;20200;-85
2023/07/18 02:22:26;;;;;;;3.97;2.70;;;;;;;;;;5092460;28;20586;-84
2023/07/18 02:24:54;;;;;;;2.67;2.07;;;;;;;;;;5093645;28;20212;-85
2023/07/18 02:27:22;;;;;;;4.43;2.83;;;;;;;;;;5092254;28;20263;-84
2023/07/18 02:29:49;;;;;;;2.57;2.37;;;;;;;;;;5093060;28;20698;-85
2023/07/18 02:32:17;;;;;;;5.77;2.90;;;;;;;;;;5091963;28;20201;-84
2023/07/18 02:34:45;;;;;;;4.63;2.80;;;;;;;;;;5093149;28;20239;-84
2023/07/18 02:37:12;;;;;;;3.87;2.50;;;;;;;;;;5092123;28;20228;-84
2023/07/18 02:39:42;;;;;;;3.70;2.63;;;;;;;;;;5092549;28;20665;-85
2023/07/18 02:42:09;;;;;;;2.87;2.57;;;;;;;;;;5091965;28;20211;-84
2023/07/18 02:44:37;;;;;;;3.30;2.63;;;;;;;;;;5092734;28;20243;-85
2023/07/18 02:47:04;;;;;;;3.87;2.70;;;;;;;;;;5092185;28;20256;-84
2023/07/18 02:49:33;;;;;;;6.43;2.80;;;;;;;;;;5092295;28;20308;-84
2023/07/18 02:52:00;;;;;;;5.83;3.00;;;;;;;;;;5092348;28;20205;-85
2023/07/18 02:54:27;;;;;;;3.73;2.73;;;;;;;;;;5091878;28;20783;-84
2023/07/18 02:56:56;;;;;;;5.73;2.50;;;;;;;;;;5092229;28;20231;-85
2023/07/18 02:59:23;;;;;;;4.07;3.23;;;;;;;;;;5091883;28;20265;-84
2023/07/18 03:01:50;;;;;;;6.03;2.60;;;;;;;;;;5092086;28;20624;-84
2023/07/18 03:04:18;;;;;;;3.57;3.03;;;;;;;;;;5091697;28;20256;-84
2023/07/18 03:06:51;;;;;;;3.03;2.60;;;;;;;;;;5092289;28;20229;-84
2023/07/18 03:09:19;;;;;;;3.67;2.83;;;;;;;;;;5091475;28;20246;-84
2023/07/18 03:11:47;;;;;;;3.63;3.27;;;;;;;;;;5091589;28;20227;-84
2023/07/18 03:14:14;;;;;;;3.33;2.63;;;;;;;;;;5091329;28;20228;-85
2023/07/18 03:16:41;;;;;;;3.77;2.90;;;;;;;;;;5091844;28;20216;-84
2023/07/18 03:19:10;;;;;;;3.23;2.80;;;;;;;;;;5091407;28;20725;-85
2023/07/18 03:21:37;;;;;;;3.83;2.70;;;;;;;;;;5091588;28;20228;-85
2023/07/18 03:24:07;;;;;;;4.23;2.87;;;;;;;;;;5094281;28;20234;-84
2023/07/18 03:26:36;;;;;;;3.47;2.50;;;;;;;;;;5092853;28;20572;-84
2023/07/18 03:29:04;;;;;;;3.33;2.50;;;;;;;;;;5091289;28;20240;-84
2023/07/18 03:31:31;;;;;;;3.37;2.87;;;;;;;;;;5091416;28;20241;-84
2023/07/18 03:33:58;;;;;;;2.77;2.57;;;;;;;;;;5091287;28;20228;-84
2023/07/18 03:36:26;;;;;;;4.17;3.30;;;;;;;;;;5091404;28;20201;-84
2023/07/18 03:38:53;;;;;;;4.17;2.80;;;;;;;;;;5091163;28;20270;-84
2023/07/18 03:41:21;;;;;;;3.17;2.87;;;;;;;;;;5091476;28;20205;-84
2023/07/18 03:43:48;;;;;;;3.10;2.80;;;;;;;;;;5092725;28;20225;-84
2023/07/18 03:46:15;;;;;;;4.27;2.60;;;;;;;;;;5095530;28;20266;-84
2023/07/18 03:48:42;;;;;;;8.50;2.67;;;;;;;;;;5090739;28;20239;-84
2023/07/18 03:51:09;;;;;;;3.37;3.07;;;;;;;;;;5097778;28;20200;-84
2023/07/18 03:53:38;;;;;;;3.30;2.50;;;;;;;;;;5091954;28;20240;-84
2023/07/18 03:56:05;;;;;;;6.50;3.07;;;;;;;;;;5090859;28;20197;-84
2023/07/18 03:58:34;;;;;;;4.07;2.90;;;;;;;;;;5101013;22;20228;-93
2023/07/18 04:01:07;;;;;;;7.00;2.90;;;;;;;;;;5062128;28;20203;-94
2023/07/18 04:03:34;;;;;;;6.47;3.33;;;;;;;;;;5068463;28;20222;-92
2023/07/18 04:06:02;;;;;;;3.07;2.87;;;;;;;;;;5075517;28;20214;-93
2023/07/18 04:08:29;;;;;;;3.63;2.47;;;;;;;;;;5075060;28;20291;-93
2023/07/18 04:10:57;;;;;;;3.43;3.03;;;;;;;;;;5081579;28;20205;-93
2023/07/18 04:13:30;;;;;;;8.87;2.67;;;;;;;;;;5078103;28;20225;-92
2023/07/18 04:16:25;;;;;;;2.90;2.70;;;;;;;;;;5086949;28;20216;-93
2023/07/18 04:21:38;;;;;;;4.13;2.80;;;;;;;;;;5063837;28;20229;-94
2023/07/18 04:24:08;;;;;;;5.07;2.83;;;;;;;;;;5073798;28;20237;-90
2023/07/18 04:26:36;;;;;;;3.57;2.73;;;;;;;;;;5079458;28;20194;-91
2023/07/18 04:29:04;;;;;;;3.30;2.87;;;;;;;;;;5076580;28;20330;-90
2023/07/18 04:31:43;;;;;;;5.30;2.90;;;;;;;;;;5078510;28;20209;-91
2023/07/18 04:34:11;;;;;;;5.50;2.63;;;;;;;;;;5082473;28;20225;-92
2023/07/18 04:40:08;;;;;;;3.90;3.03;;;;;;;;;;5060596;28;20217;-90
2023/07/18 04:48:52;;;;;;;;;;;;;;;;;;;;;
2023/07/18 04:51:30;;;;;;;6.00;3.53;;;;;;;;;;5044635;28;20199;-90
2023/07/18 04:53:57;;;;;;;8.57;3.43;;;;;;;;;;5036409;28;20241;-91
2023/07/18 04:56:24;;;;;;;6.10;3.27;;;;;;;;;;5037224;28;20206;-92
2023/07/18 04:58:54;;;;;;;3.67;3.07;;;;;;;;;;5037468;28;20225;-92
2023/07/18 05:01:22;;;;;;;5.17;3.23;;;;;;;;;;5039526;28;20226;-91
2023/07/18 05:03:50;;;;;;;4.50;3.17;;;;;;;;;;5035983;28;20226;-90
2023/07/18 05:06:17;;;;;;;7.97;3.53;;;;;;;;;;5036900;28;20190;-89
2023/07/18 05:08:44;;;;;;;8.37;3.40;;;;;;;;;;5037849;28;20230;-88
2023/07/18 05:11:11;;;;;;;5.70;3.77;;;;;;;;;;5038846;28;20241;-93
2023/07/18 05:13:38;;;;;;;6.57;3.33;;;;;;;;;;5038384;28;20242;-92
2023/07/18 05:16:05;;;;;;;6.57;3.40;;;;;;;;;;5037930;28;20198;-88
2023/07/18 05:18:32;;;;;;;3.97;3.33;;;;;;;;;;5038419;28;20239;-89
2023/07/18 05:21:01;;;;;;;3.63;3.33;;;;;;;;;;5040682;28;20195;-90
2023/07/18 05:23:28;;;;;;;5.63;3.33;;;;;;;;;;5037901;28;20230;-89
2023/07/18 05:25:56;;;;;;;4.67;3.13;;;;;;;;;;5038017;28;20230;-90
2023/07/18 05:28:23;;;;;;;4.73;3.63;;;;;;;;;;5039703;28;20317;-90
2023/07/18 05:30:51;;;;;;;3.60;3.07;;;;;;;;;;5039338;28;20226;-90
2023/07/18 05:33:19;;;;;;;5.90;3.43;;;;;;;;;;5039936;28;20230;-90
2023/07/18 05:35:47;;;;;;;6.93;4.07;;;;;;;;;;5042505;28;20206;-90
2023/07/18 05:38:15;;;;;;;3.73;3.20;;;;;;;;;;5037335;28;20285;-90
2023/07/18 05:40:43;;;;;;;9.23;3.87;;;;;;;;;;5037311;28;20211;-89
2023/07/18 05:43:10;;;;;;;4.47;3.80;;;;;;;;;;5037446;28;20289;-89
2023/07/18 05:45:37;;;;;;;6.47;3.40;;;;;;;;;;5037074;28;20203;-89
2023/07/18 05:48:04;;;;;;;4.23;3.27;;;;;;;;;;5036235;28;20234;-89
2023/07/18 05:50:31;;;;;;;5.07;3.50;;;;;;;;;;5036636;28;20718;-86
2023/07/18 05:52:59;;;;;;;5.43;3.53;;;;;;;;;;5037286;28;20222;-91
2023/07/18 05:55:27;;;;;;;6.43;3.97;;;;;;;;;;5035097;28;20827;-87
2023/07/18 05:57:54;;;;;;;6.43;4.20;;;;;;;;;;5035104;28;20597;-88
2023/07/18 06:00:22;;;;;;;6.17;3.40;;;;;;;;;;5037064;28;20225;-87
2023/07/18 06:02:49;;;;;;;6.60;3.83;;;;;;;;;;5035768;28;20238;-87
2023/07/18 06:05:16;;;;;;;5.80;3.30;;;;;;;;;;5036898;28;20190;-87
2023/07/18 06:07:43;;;;;;;6.23;3.50;;;;;;;;;;5037099;28;20238;-88
2023/07/18 06:10:10;;;;;;;6.13;3.17;;;;;;;;;;5036732;28;20223;-87
2023/07/18 06:12:39;;;;;;;3.37;3.07;;;;;;;;;;5035020;28;20242;-87
2023/07/18 06:15:07;;;;;;;5.90;3.20;;;;;;;;;;5034730;28;20298;-87
2023/07/18 06:17:35;;;;;;;4.83;3.00;;;;;;;;;;5032843;28;20353;-87
2023/07/18 06:20:06;;;;;;;7.83;2.90;;;;;;;;;;5034701;28;20663;-88
2023/07/18 06:22:33;;;;;;;5.70;3.10;;;;;;;;;;5034287;28;20648;-88
2023/07/18 06:25:00;;;;;;;4.07;2.97;;;;;;;;;;5035754;28;20568;-87
2023/07/18 06:27:27;;;;;;;4.97;3.17;;;;;;;;;;5035014;28;20696;-87
2023/07/18 06:29:56;;;;;;;3.27;2.97;;;;;;;;;;5027915;28;20222;-87
2023/07/18 06:32:24;;;;;;;3.33;2.17;;;;;;;;;;5035055;28;22219;-87
2023/07/18 06:34:51;;;;;;;7.67;2.77;;;;;;;;;;5034959;28;20202;-87
2023/07/18 06:37:18;;;;;;;6.10;2.43;;;;;;;;;;5035715;28;20241;-87
2023/07/18 06:39:45;;;;;;;5.27;2.70;;;;;;;;;;5035591;28;20214;-87
2023/07/18 06:42:12;;;;;;;4.13;2.53;;;;;;;;;;5035918;28;20357;-87
2023/07/18 06:44:39;;;;;;;4.05;2.85;;;;;;;;;;5035735;28;20203;-87
2023/07/18 06:50:10;;;;;;;3.30;2.72;;;;;;;;;;5037375;28;20269;-88
2023/07/18 06:52:37;;;;;;;6.90;2.90;;;;;;;;;;5036626;28;20241;-87
2023/07/18 06:55:04;;;;;;;4.03;2.83;;;;;;;;;;5037162;28;20199;-87
2023/07/18 06:57:39;;;;;;;4.03;2.80;;;;;;;;;;5040802;28;20242;-88
2023/07/18 07:00:15;;;;;;;3.92;2.63;;;;;;;;;;5039754;28;20199;-87
2023/07/18 07:02:58;;;;;;;4.28;2.50;;;;;;;;;;5037724;28;20625;-88
2023/07/18 07:05:27;;;;;;;4.47;2.60;;;;;;;;;;5038928;28;20265;-88
2023/07/18 07:07:54;;;;;;;3.38;2.30;;;;;;;;;;5035277;28;20238;-88
2023/07/18 07:10:26;;;;;;;2.85;2.50;;;;;;;;;;5039357;28;20225;-88
2023/07/18 07:12:54;;;;;;;2.65;2.40;;;;;;;;;;5037143;28;20246;-88
2023/07/18 07:15:21;;;;;;;3.30;2.40;;;;;;;;;;5035693;28;20209;-88
2023/07/18 07:17:50;;;;;;;2.88;2.30;;;;;;;;;;5037440;28;20245;-87
2023/07/18 07:20:19;;;;;;;3.17;2.05;;;;;;;;;;5035015;28;20351;-87
2023/07/18 07:22:47;;;;;;;2.38;2.17;;;;;;;;;;5035120;28;20292;-86
2023/07/18 07:25:24;;;;;;;3.63;2.05;;;;;;;;;;5033027;28;20206;-87
2023/07/18 07:27:51;;;;;;;3.47;2.25;;;;;;;;;;5031861;28;20238;-87
2023/07/18 07:30:18;;;;;;;5.68;2.22;;;;;;;;;;5033520;28;20222;-88
2023/07/18 07:32:47;;;;;;;3.08;2.05;;;;;;;;;;5032410;28;20238;-88
2023/07/18 07:35:16;;;;;;;2.38;1.83;;;;;;;;;;5033824;28;20203;-90
2023/07/18 07:37:43;;;;;;;4.43;2.10;;;;;;;;;;5033686;28;20244;-87
2023/07/18 07:40:12;;;;;;;4.03;2.17;;;;;;;;;;5034200;28;20202;-86
2023/07/18 07:42:39;;;;;;;3.00;1.88;;;;;;;;;;5033121;28;20309;-87
2023/07/18 07:45:07;;;;;;;3.88;2.10;;;;;;;;;;5034096;28;20210;-87
2023/07/18 07:47:34;;;;;;;2.80;1.98;;;;;;;;;;5033187;28;20230;-88
2023/07/18 07:50:01;;;;;;;3.65;2.00;;;;;;;;;;5034244;28;20207;-88
2023/07/18 07:52:29;;;;;;;3.05;1.92;;;;;;;;;;5032812;28;20230;-88
2023/07/18 07:54:56;;;;;;;4.55;2.03;;;;;;;;;;5032342;28;20242;-89
2023/07/18 07:57:24;;;;;;;2.38;1.80;;;;;;;;;;5031907;28;20314;-88
2023/07/18 07:59:52;;;;;;;10.48;2.67;;;;;;;;;;5032971;28;20206;-88
2023/07/18 08:02:20;;;;;;;4.65;2.17;;;;;;;;;;5033311;28;20704;-88
2023/07/18 08:04:47;;;;;;;2.55;2.10;;;;;;;;;;5033489;28;20218;-87
2023/07/18 08:07:14;;;;;;;6.50;2.83;;;;;;;;;;5033228;28;20233;-90
2023/07/18 08:09:42;;;;;;;12.98;2.50;;;;;;;;;;5033872;28;20198;-89
2023/07/18 08:12:09;;;;;;;5.10;2.05;;;;;;;;;;5033432;28;20218;-90
2023/07/18 08:14:39;;;;;;;3.05;1.90;;;;;;;;;;5033188;28;20217;-89
2023/07/18 08:17:07;;;;;;;2.25;1.60;;;;;;;;;;5033617;28;20226;-89
2023/07/18 08:19:35;;;;;;;3.65;2.10;;;;;;;;;;5033753;28;20206;-89
2023/07/18 08:22:02;;;;;;;1.80;1.70;;;;;;;;;;5033863;28;20293;-90
2023/07/18 08:24:29;;;;;;;3.30;1.67;;;;;;;;;;5032545;28;20230;-89
2023/07/18 08:27:02;;;;;;;2.80;2.10;;;;;;;;;;5033008;28;20227;-89
2023/07/18 08:29:30;;;;;;;1.83;1.73;;;;;;;;;;5005672;28;20233;-88
2023/07/18 08:31:59;;;;;;;2.17;1.98;;;;;;;;;;5033335;28;20724;-89
2023/07/18 08:34:26;;;;;;;3.05;2.03;;;;;;;;;;5032522;28;20230;-89
2023/07/18 08:36:53;;;;;;;3.70;1.95;;;;;;;;;;5032833;28;20568;-89
2023/07/18 08:39:20;;;;;;;3.70;1.77;;;;;;;;;;5033093;28;20598;-89
2023/07/18 08:41:48;;;;;;;1.63;1.52;;;;;;;;;;5035866;28;20206;-88
2023/07/18 08:44:16;;;;;;;7.72;1.83;;;;;;;;;;5036329;28;20372;-88
2023/07/18 08:46:45;;;;;;;2.38;1.77;;;;;;;;;;5036685;28;20859;-89
2023/07/18 08:49:14;;;;;;;3.65;1.50;;;;;;;;;;5036705;28;20223;-89
2023/07/18 08:51:42;;;;;;;4.63;1.90;;;;;;;;;;5036550;28;20237;-88
2023/07/18 08:54:09;;;;;;;2.75;1.67;;;;;;;;;;5036174;28;20237;-88
2023/07/18 08:56:36;;;;;;;1.90;1.45;;;;;;;;;;5036818;28;20203;-89
2023/07/18 08:59:03;;;;;;;2.42;1.92;;;;;;;;;;5035795;28;20230;-89
2023/07/18 09:01:30;;;;;;;1.38;1.27;;;;;;;;;;5035207;28;20697;-89
2023/07/18 09:03:57;;;;;;;1.55;1.45;;;;;;;;;;5034839;28;20241;-89
2023/07/18 09:06:26;;;;;;;5.60;2.05;;;;;;;;;;5036638;28;20203;-89
2023/07/18 09:08:55;;;;;;;1.40;1.30;;;;;;;;;;5035983;28;20241;-88
2023/07/18 09:11:22;;;;;;;1.92;1.70;;;;;;;;;;5036576;28;20234;-89
2023/07/18 09:13:49;;;;;;;1.55;1.40;;;;;;;;;;5035159;28;20230;-89
2023/07/18 09:16:18;;;;;;;1.88;1.50;;;;;;;;;;5036120;28;20207;-88
2023/07/18 09:18:46;;;;;;;1.50;1.40;;;;;;;;;;5027568;28;20330;-88
2023/07/18 09:21:13;;;;;;;1.60;1.08;;;;;;;;;;5037029;28;20199;-88
2023/07/18 09:23:42;;;;;;;1.35;1.20;;;;;;;;;;5035440;28;20245;-88
2023/07/18 09:26:10;;;;;;;2.17;1.50;;;;;;;;;;5036260;28;20206;-88
2023/07/18 09:28:38;;;;;;;3.60;1.83;;;;;;;;;;5036236;28;20242;-86
2023/07/18 09:31:16;;;;;;;2.25;1.55;;;;;;;;;;5036094;28;20222;-86
2023/07/18 09:33:43;;;;;;;1.50;1.40;;;;;;;;;;5034876;28;20230;-86
2023/07/18 09:36:15;;;;;;;2.92;1.45;;;;;;;;;;5036552;28;20261;-86
2023/07/18 09:38:45;;;;;;;2.47;1.65;;;;;;;;;;5035298;28;20242;-86
2023/07/18 09:41:12;;;;;;;1.98;1.52;;;;;;;;;;5035704;28;20214;-86
2023/07/18 09:43:40;;;;;;;2.22;1.20;;;;;;;;;;5035573;28;20704;-86
2023/07/18 09:46:08;;;;;;;1.80;1.15;;;;;;;;;;5027748;28;20605;-87
2023/07/18 09:48:35;;;;;;;3.40;1.83;;;;;;;;;;5035578;28;20230;-87
2023/07/18 09:51:04;;;;;;;2.25;1.52;;;;;;;;;;5035198;28;20227;-87
2023/07/18 09:53:32;;;;;;;3.75;1.50;;;;;;;;;;5034453;28;20242;-88
2023/07/18 09:56:02;;;;;;;2.22;1.50;;;;;;;;;;5035164;28;20210;-85
2023/07/18 09:58:29;;;;;;;1.42;1.17;;;;;;;;;;5073616;22;20240;-85
2023/07/18 10:00:57;;;;;;;1.55;1.15;;;;;;;;;;5072945;28;20216;-85
2023/07/18 10:03:24;;;;;;;1.17;1.02;;;;;;;;;;5072890;28;20222;-83
2023/07/18 10:05:51;;;;;;;1.67;1.30;;;;;;;;;;5072691;28;20215;-84
2023/07/18 10:08:19;;;;;;;2.70;1.75;;;;;;;;;;5067741;28;20240;-84
2023/07/18 10:11:02;;;;;;;2.05;1.40;;;;;;;;;;5069525;28;22160;-83
2023/07/18 10:13:32;;;;;;;2.80;1.65;;;;;;;;;;5059653;28;20240;-84
2023/07/18 10:16:19;;;;;;;2.00;1.50;;;;;;;;;;5054047;28;20575;-84
2023/07/18 10:18:46;;;;;;;1.98;1.40;;;;;;;;;;5052675;28;20261;-85
2023/07/18 10:21:14;;;;;;;1.40;1.30;;;;;;;;;;5057472;28;20202;-84
2023/07/18 10:23:41;;;;;;;1.58;1.42;;;;;;;;;;5055877;28;20717;-84
2023/07/18 10:26:09;;;;;;;1.92;1.45;;;;;;;;;;5060717;28;20209;-84
2023/07/18 10:28:47;;;;;;;2.55;1.35;;;;;;;;;;5056729;28;20237;-84
2023/07/18 10:31:35;;;;;;;3.22;1.83;;;;;;;;;;5052669;28;20729;-84
2023/07/18 10:34:06;;;;;;;1.67;1.30;;;;;;;;;;5052067;28;20837;-84
2023/07/18 10:36:34;;;;;;;3.85;1.50;;;;;;;;;;5060916;28;20439;-84
2023/07/18 10:39:01;;;;;;;3.88;1.80;;;;;;;;;;5051994;28;20265;-84
2023/07/18 10:41:28;;;;;;;1.55;1.20;;;;;;;;;;5058733;28;20208;-84
2023/07/18 10:43:57;;;;;;;1.70;1.55;;;;;;;;;;5053503;28;20237;-85
2023/07/18 10:46:25;;;;;;;3.00;1.80;;;;;;;;;;5052824;28;20206;-85
2023/07/18 10:48:52;;;;;;;2.28;1.73;;;;;;;;;;5051940;28;20671;-85
2023/07/18 10:51:19;;;;;;;2.78;1.63;;;;;;;;;;5060450;28;20218;-84
2023/07/18 10:53:53;;;;;;;1.85;1.33;;;;;;;;;;5051703;28;20658;-84
2023/07/18 10:56:20;;;;;;;2.15;1.52;;;;;;;;;;5052240;28;20210;-85
2023/07/18 10:58:47;;;;;;;3.97;1.70;;;;;;;;;;5054300;28;20238;-84
2023/07/18 11:01:17;;;;;;;1.90;1.50;;;;;;;;;;5060510;28;20723;-84
2023/07/18 11:03:45;;;;;;;1.90;1.75;;;;;;;;;;5052536;28;20222;-85
2023/07/18 11:06:14;;;;;;;2.22;1.35;;;;;;;;;;5052373;28;20453;-84
2023/07/18 11:08:45;;;;;;;2.55;1.95;;;;;;;;;;5047440;28;20615;-84
2023/07/18 11:11:14;;;;;;;1.58;1.48;;;;;;;;;;5047921;28;20308;-84
2023/07/18 11:13:43;;;;;;;2.45;1.80;;;;;;;;;;5056129;28;20230;-84
2023/07/18 11:16:11;;;;;;;2.42;1.70;;;;;;;;;;5043678;28;20228;-84
2023/07/18 11:18:40;;;;;;;2.67;1.50;;;;;;;;;;5067088;28;20233;-84
2023/07/18 11:21:07;;;;;;;2.83;1.60;;;;;;;;;;5060412;28;20209;-83
2023/07/18 11:23:35;;;;;;;2.97;1.98;;;;;;;;;;5051981;28;20234;-84
2023/07/18 11:26:10;;;;;;;3.70;1.48;;;;;;;;;;5063139;28;20216;-84
2023/07/18 11:28:37;;;;;;;3.22;1.48;;;;;;;;;;5068591;28;20295;-84
2023/07/18 11:31:04;;;;;;;1.85;1.48;;;;;;;;;;5055723;28;20225;-84
2023/07/18 11:33:33;;;;;;;2.70;1.65;;;;;;;;;;5052936;28;20253;-84
2023/07/18 11:36:01;;;;;;;1.98;1.60;;;;;;;;;;5060603;28;20233;-85
2023/07/18 11:38:29;;;;;;;2.95;1.45;;;;;;;;;;5059799;28;20650;-84
2023/07/18 11:40:57;;;;;;;4.05;1.70;;;;;;;;;;5053128;28;20201;-84
2023/07/18 11:43:24;;;;;;;1.73;1.63;;;;;;;;;;5057608;28;20260;-84
2023/07/18 11:45:56;;;;;;;1.95;1.77;;;;;;;;;;5068186;28;20201;-84
2023/07/18 11:48:23;;;;;;;3.00;2.13;;;;;;;;;;5054311;28;20772;-84
2023/07/18 11:50:51;;;;;;;2.80;1.75;;;;;;;;;;5051409;28;20217;-84
2023/07/18 11:53:26;;;;;;;3.83;1.75;;;;;;;;;;5059546;28;20309;-84
2023/07/18 11:55:54;;;;;;;2.20;1.60;;;;;;;;;;5043697;28;20209;-84
2023/07/18 11:58:21;;;;;;;4.45;1.63;;;;;;;;;;5050547;28;20288;-84
2023/07/18 12:00:48;;;;;;;2.35;1.80;;;;;;;;;;5059842;28;20212;-85
2023/07/18 12:03:15;;;;;;;1.90;1.70;;;;;;;;;;5055040;28;20225;-84
2023/07/18 12:05:42;;;;;;;3.60;1.80;;;;;;;;;;5063891;28;20213;-84
2023/07/18 12:08:10;;;;;;;2.35;1.58;;;;;;;;;;5051213;28;20234;-84
2023/07/18 12:10:38;;;;;;;2.25;1.60;;;;;;;;;;5051658;28;20700;-84
2023/07/18 12:13:05;;;;;;;3.15;1.80;;;;;;;;;;5070154;28;20643;-84
2023/07/18 12:15:32;;;;;;;3.67;2.00;;;;;;;;;;5059383;28;20198;-83
2023/07/18 12:17:59;;;;;;;4.57;1.83;;;;;;;;;;5058618;28;20241;-85
2023/07/18 12:20:26;;;;;;;3.50;1.50;;;;;;;;;;5066466;28;20205;-85
2023/07/18 12:22:53;;;;;;;2.95;1.58;;;;;;;;;;5063360;28;20233;-85
2023/07/18 12:25:21;;;;;;;4.63;1.88;;;;;;;;;;5046982;28;20568;-87
2023/07/18 12:27:49;;;;;;;3.88;1.63;;;;;;;;;;5054740;28;20250;-85
2023/07/18 12:30:17;;;;;;;7.82;2.25;;;;;;;;;;5050804;28;20205;-86
2023/07/18 12:32:44;;;;;;;5.28;1.80;;;;;;;;;;5058876;28;20241;-87
2023/07/18 12:35:11;;;;;;;3.05;1.80;;;;;;;;;;5055074;28;20205;-86
2023/07/18 12:37:38;;;;;;;3.35;1.65;;;;;;;;;;5066247;28;20260;-85
2023/07/18 12:40:06;;;;;;;4.55;2.03;;;;;;;;;;5052578;28;20672;-87
2023/07/18 12:42:33;;;;;;;2.47;2.28;;;;;;;;;;5055011;28;20236;-87
2023/07/18 12:45:01;;;;;;;2.63;1.73;;;;;;;;;;5054790;28;20213;-86
2023/07/18 12:47:28;;;;;;;2.22;1.80;;;;;;;;;;5054648;28;20237;-86
2023/07/18 12:49:55;;;;;;;2.00;1.83;;;;;;;;;;5046891;28;20222;-86
2023/07/18 12:52:22;;;;;;;3.33;1.70;;;;;;;;;;5042256;28;20249;-86
2023/07/18 12:54:49;;;;;;;1.80;1.55;;;;;;;;;;5059528;28;20215;-85
2023/07/18 12:57:17;;;;;;;4.63;1.80;;;;;;;;;;5054034;28;20237;-86
2023/07/18 12:59:44;;;;;;;2.97;2.00;;;;;;;;;;5054816;28;20606;-86
2023/07/18 13:02:13;;;;;;;2.63;2.00;;;;;;;;;;5054091;28;20214;-85
2023/07/18 13:04:40;;;;;;;3.63;1.85;;;;;;;;;;5055043;28;20655;-85
2023/07/18 13:07:07;;;;;;;3.63;1.70;;;;;;;;;;5064244;28;20234;-85
2023/07/18 13:09:34;;;;;;;1.98;1.65;;;;;;;;;;5064067;28;20263;-85
2023/07/18 13:12:01;;;;;;;2.53;2.13;;;;;;;;;;5056283;28;20230;-85
2023/07/18 13:14:28;;;;;;;3.80;1.60;;;;;;;;;;5054012;28;20229;-85
2023/07/18 13:16:56;;;;;;;3.63;2.22;;;;;;;;;;5062657;28;20217;-85
2023/07/18 13:19:24;;;;;;;2.80;1.98;;;;;;;;;;5053622;28;20758;-85
2023/07/18 13:21:51;;;;;;;3.55;2.05;;;;;;;;;;5062619;28;20212;-85
2023/07/18 13:24:18;;;;;;;2.00;1.63;;;;;;;;;;5045475;28;20226;-85
2023/07/18 13:26:45;;;;;;;5.70;2.15;;;;;;;;;;5053857;28;20206;-85
2023/07/18 13:29:12;;;;;;;2.80;1.98;;;;;;;;;;5052845;28;20767;-85
2023/07/18 13:31:39;;;;;;;2.47;2.20;;;;;;;;;;5046013;28;20625;-84
2023/07/18 13:34:09;;;;;;;4.07;1.80;;;;;;;;;;5053200;28;20229;-85
2023/07/18 13:36:37;;;;;;;4.18;1.88;;;;;;;;;;5053937;28;20233;-85
2023/07/18 13:39:04;;;;;;;3.30;1.90;;;;;;;;;;5054554;28;20708;-85
2023/07/18 13:41:32;;;;;;;4.40;2.08;;;;;;;;;;5059962;28;20214;-85
2023/07/18 13:43:59;;;;;;;1.92;1.60;;;;;;;;;;5052910;28;20234;-85
2023/07/18 13:46:26;;;;;;;1.67;1.58;;;;;;;;;;5053737;28;20234;-85
2023/07/18 13:48:54;;;;;;;3.55;1.65;;;;;;;;;;5053019;28;20307;-83
2023/07/18 13:51:21;;;;;;;3.20;2.90;;;;;;;;;;5057018;28;20674;-84
2023/07/18 13:53:51;;;;;;;2.33;1.83;;;;;;;;;;5056949;28;20322;-83
2023/07/18 13:56:18;;;;;;;2.72;1.80;;;;;;;;;;5053345;28;20210;-83
2023/07/18 13:58:45;;;;;;;5.82;1.77;;;;;;;;;;5052516;28;20226;-83
2023/07/18 14:01:13;;;;;;;3.65;1.88;;;;;;;;;;5061555;28;20214;-83
2023/07/18 14:03:40;;;;;;;2.72;1.63;;;;;;;;;;5052949;28;20261;-82
2023/07/18 14:06:07;;;;;;;5.05;1.70;;;;;;;;;;5053368;28;20251;-83
2023/07/18 14:08:34;;;;;;;1.73;1.63;;;;;;;;;;5052464;28;20699;-83
2023/07/18 14:11:04;;;;;;;2.53;2.05;;;;;;;;;;5062425;28;20209;-82
2023/07/18 14:13:31;;;;;;;2.95;2.10;;;;;;;;;;5059252;28;20329;-82
2023/07/18 14:15:58;;;;;;;4.15;2.00;;;;;;;;;;5052997;28;20229;-82
2023/07/18 14:18:25;;;;;;;2.95;1.85;;;;;;;;;;5052094;28;20229;-83
2023/07/18 14:20:52;;;;;;;2.10;1.80;;;;;;;;;;5052686;28;20210;-82
2023/07/18 14:23:19;;;;;;;2.17;1.85;;;;;;;;;;5051996;28;20230;-82
2023/07/18 14:25:47;;;;;;;4.57;1.80;;;;;;;;;;5061167;28;20205;-85
2023/07/18 14:28:17;;;;;;;5.18;1.88;;;;;;;;;;5052519;28;20257;-85
2023/07/18 14:30:44;;;;;;;2.55;1.80;;;;;;;;;;5060668;28;20241;-85
2023/07/18 14:33:13;;;;;;;2.40;1.85;;;;;;;;;;5061360;28;20261;-84
2023/07/18 14:35:41;;;;;;;2.65;1.83;;;;;;;;;;5061051;28;20664;-83
2023/07/18 14:38:08;;;;;;;2.40;1.85;;;;;;;;;;5060152;28;20237;-82
2023/07/18 14:40:35;;;;;;;1.85;1.75;;;;;;;;;;5052090;28;20737;-82
2023/07/18 14:43:07;;;;;;;1.77;1.67;;;;;;;;;;5052088;28;20244;-83
2023/07/18 14:45:36;;;;;;;4.68;1.92;;;;;;;;;;5052633;28;20582;-83
2023/07/18 14:48:03;;;;;;;2.70;2.00;;;;;;;;;;5051786;28;20238;-83
2023/07/18 14:50:30;;;;;;;3.92;2.33;;;;;;;;;;5052194;28;20249;-84
2023/07/18 14:52:57;;;;;;;3.85;1.75;;;;;;;;;;5058008;28;20268;-83
2023/07/18 14:55:24;;;;;;;4.40;1.90;;;;;;;;;;5052510;28;20206;-84
2023/07/18 14:57:51;;;;;;;3.17;1.70;;;;;;;;;;5051414;28;20242;-83
2023/07/18 15:00:19;;;;;;;2.22;1.60;;;;;;;;;;5060027;28;20205;-84
2023/07/18 15:02:47;;;;;;;3.03;1.92;;;;;;;;;;5051443;28;20230;-82
2023/07/18 15:05:14;;;;;;;2.22;1.83;;;;;;;;;;5050413;28;20575;-80